Time;durP1;ratioP1;P1;durP2;ratioP2;P2;SDS_P1;SDS_P2;PMS_P1;PMS_P2;Temp;Humidity;BMP_temperature;BMP_pressure;BME280_temperature;BME280_humidity;BME280_pressure;Samples;Min_cycle;Max_cycle;Signal;HPM_P1;HPM_P2
2023/09/05 00:04:05;;;;;;;0.43;0.43;;;22.80;72.00;;;;;;6257474;23;20150;-94
2023/09/05 00:06:37;;;;;;;0.40;0.40;;;22.80;71.80;;;;;;6268078;23;20177;-92
2023/09/05 00:09:28;;;;;;;1.13;0.63;;;22.70;71.00;;;;;;6269492;23;20176;-94
2023/09/05 00:11:59;;;;;;;0.98;0.90;;;22.80;71.00;;;;;;6266419;23;20181;-93
2023/09/05 00:14:28;;;;;;;0.57;0.52;;;22.80;70.90;;;;;;6269224;23;20225;-91
2023/09/05 00:16:57;;;;;;;0.50;0.47;;;22.80;71.00;;;;;;6269972;22;20179;-91
2023/09/05 00:19:26;;;;;;;0.77;0.77;;;22.80;70.20;;;;;;6270949;22;20178;-90
2023/09/05 00:21:54;;;;;;;0.30;0.30;;;22.70;70.40;;;;;;6270219;22;20166;-93
2023/09/05 00:24:32;;;;;;;0.68;0.60;;;22.80;70.40;;;;;;6267976;23;20154;-91
2023/09/05 00:27:02;;;;;;;0.57;0.50;;;22.70;70.30;;;;;;6269494;22;20162;-95
2023/09/05 00:29:33;;;;;;;0.65;0.52;;;22.70;70.20;;;;;;6256999;23;20166;-94
2023/09/05 00:32:11;;;;;;;0.28;0.28;;;22.80;70.40;;;;;;6265137;23;20190;-93
2023/09/05 00:34:40;;;;;;;0.93;0.90;;;22.80;70.20;;;;;;6249698;23;20158;-92
2023/09/05 00:37:10;;;;;;;1.20;1.08;;;22.80;70.20;;;;;;6248634;23;20273;-92
2023/09/05 00:39:44;;;;;;;1.27;0.82;;;22.80;70.20;;;;;;6248595;23;20166;-89
2023/09/05 00:42:14;;;;;;;0.30;0.30;;;22.80;70.10;;;;;;6247731;23;20186;-94
2023/09/05 00:44:47;;;;;;;0.75;0.73;;;22.80;70.00;;;;;;6246897;23;20171;-88
2023/09/05 00:47:22;;;;;;;1.10;0.70;;;22.80;70.10;;;;;;6246237;23;20170;-91
2023/09/05 00:49:53;;;;;;;0.63;0.63;;;22.70;69.70;;;;;;6247081;23;20162;-92
2023/09/05 00:52:25;;;;;;;0.98;0.50;;;22.70;70.00;;;;;;6245804;22;20289;-92
2023/09/05 00:54:55;;;;;;;0.38;0.30;;;22.70;69.80;;;;;;6246110;23;20202;-90
2023/09/05 00:57:25;;;;;;;0.57;0.57;;;22.80;70.00;;;;;;6246181;23;20685;-89
2023/09/05 00:59:54;;;;;;;1.98;0.38;;;22.70;70.00;;;;;;6250057;23;20608;-96
2023/09/05 01:02:24;;;;;;;1.60;0.93;;;22.80;70.00;;;;;;6245620;23;20249;-92
2023/09/05 01:04:53;;;;;;;0.38;0.38;;;22.70;69.70;;;;;;6248415;23;20186;-93
2023/09/05 01:07:32;;;;;;;1.65;0.85;;;22.70;69.80;;;;;;6245217;23;20173;-95
2023/09/05 01:10:09;;;;;;;1.20;1.00;;;22.70;69.70;;;;;;6247871;23;20169;-91
2023/09/05 01:12:39;;;;;;;0.50;0.50;;;22.70;69.70;;;;;;6246541;23;20547;-91
2023/09/05 01:15:09;;;;;;;0.40;0.40;;;22.70;69.80;;;;;;6221425;23;20186;-92
2023/09/05 01:17:38;;;;;;;0.57;0.57;;;22.70;69.90;;;;;;6247220;23;20644;-90
2023/09/05 01:20:09;;;;;;;1.65;0.60;;;22.70;69.80;;;;;;6248533;23;20166;-90
2023/09/05 01:22:51;;;;;;;0.50;0.50;;;22.70;69.70;;;;;;6247750;23;20248;-92
2023/09/05 01:25:24;;;;;;;1.35;1.00;;;22.70;69.80;;;;;;6247797;23;20178;-92
2023/09/05 01:28:00;;;;;;;0.95;0.47;;;22.70;69.70;;;;;;6247950;23;20248;-94
2023/09/05 01:30:31;;;;;;;1.65;0.68;;;22.70;69.80;;;;;;6249054;23;20503;-93
2023/09/05 01:33:00;;;;;;;0.90;0.90;;;22.70;69.80;;;;;;6248465;23;20174;-94
2023/09/05 01:35:29;;;;;;;0.70;0.40;;;22.70;69.80;;;;;;6248331;23;20196;-95
2023/09/05 01:38:02;;;;;;;0.40;0.40;;;22.70;69.60;;;;;;6250052;23;20191;-89
2023/09/05 01:40:35;;;;;;;0.45;0.45;;;22.70;69.80;;;;;;6249517;23;20198;-94
2023/09/05 01:43:05;;;;;;;0.52;0.52;;;22.60;70.00;;;;;;6249170;23;20202;-89
2023/09/05 01:45:36;;;;;;;1.33;0.60;;;22.70;69.80;;;;;;6248269;23;20177;-92
2023/09/05 01:48:05;;;;;;;0.50;0.50;;;22.70;69.80;;;;;;6248518;23;20181;-91
2023/09/05 01:50:34;;;;;;;0.47;0.47;;;22.60;69.80;;;;;;6249184;22;20206;-91
2023/09/05 01:53:10;;;;;;;0.65;0.60;;;22.60;69.70;;;;;;6247515;23;20221;-91
2023/09/05 01:55:40;;;;;;;0.38;0.38;;;22.60;69.70;;;;;;6248450;23;20241;-91
2023/09/05 01:58:09;;;;;;;1.05;0.85;;;22.60;69.70;;;;;;6249539;23;20214;-91
2023/09/05 02:00:38;;;;;;;0.68;0.68;;;22.60;69.70;;;;;;6247570;23;20600;-89
2023/09/05 02:03:09;;;;;;;0.82;0.80;;;22.60;69.80;;;;;;6247926;23;20162;-92
2023/09/05 02:05:38;;;;;;;0.40;0.40;;;22.60;69.90;;;;;;6247779;23;20166;-89
2023/09/05 02:08:12;;;;;;;1.55;1.27;;;22.60;70.00;;;;;;6247602;23;20170;-88
2023/09/05 02:10:46;;;;;;;21.00;1.45;;;22.50;70.80;;;;;;6249054;23;20158;-90
2023/09/05 02:13:19;;;;;;;0.75;0.75;;;22.60;70.10;;;;;;6248822;23;20170;-93
2023/09/05 02:15:50;;;;;;;0.50;0.50;;;22.50;70.00;;;;;;6246259;23;20170;-90
2023/09/05 02:18:22;;;;;;;0.90;0.40;;;22.60;70.10;;;;;;6245414;23;20837;-90
2023/09/05 02:20:51;;;;;;;0.90;0.68;;;22.50;70.10;;;;;;6248632;23;20171;-92
2023/09/05 02:23:19;;;;;;;0.40;0.40;;;22.50;70.10;;;;;;6247618;23;20206;-89
2023/09/05 02:26:07;;;;;;;0.30;0.30;;;22.60;70.10;;;;;;6249849;23;20167;-92
2023/09/05 02:28:39;;;;;;;0.30;0.30;;;22.60;70.10;;;;;;6247890;23;20166;-93
2023/09/05 02:31:12;;;;;;;1.58;0.93;;;22.60;70.10;;;;;;6250386;23;20167;-92
2023/09/05 02:33:41;;;;;;;0.20;0.20;;;22.60;70.10;;;;;;6250699;23;20189;-91
2023/09/05 02:36:23;;;;;;;0.38;0.38;;;22.60;70.10;;;;;;6250349;23;20409;-95
2023/09/05 02:38:52;;;;;;;0.75;0.75;;;22.50;70.30;;;;;;6248563;23;20249;-91
2023/09/05 02:41:26;;;;;;;0.40;0.40;;;22.50;70.20;;;;;;6247184;23;20159;-90
2023/09/05 02:43:54;;;;;;;0.75;0.75;;;22.50;70.40;;;;;;6249146;23;20194;-93
2023/09/05 02:46:24;;;;;;;0.68;0.60;;;22.60;70.50;;;;;;6247738;23;20170;-93
2023/09/05 02:48:53;;;;;;;0.75;0.60;;;22.50;70.70;;;;;;6248245;23;20198;-88
2023/09/05 02:51:22;;;;;;;0.30;0.30;;;22.60;70.80;;;;;;6262786;22;20194;-94
2023/09/05 02:53:56;;;;;;;0.80;0.60;;;22.50;70.80;;;;;;6252145;22;20177;-88
2023/09/05 02:56:34;;;;;;;1.85;1.05;;;22.50;70.70;;;;;;6278551;22;20238;-90
2023/09/05 02:59:04;;;;;;;1.20;1.10;;;22.50;70.70;;;;;;6277207;22;20177;-94
2023/09/05 03:01:34;;;;;;;1.08;0.73;;;22.50;70.70;;;;;;6276746;22;20166;-88
2023/09/05 03:04:04;;;;;;;0.52;0.52;;;22.50;70.80;;;;;;6278164;22;20166;-93
2023/09/05 03:06:36;;;;;;;0.20;0.20;;;22.50;71.10;;;;;;6277566;22;20903;-89
2023/09/05 03:09:05;;;;;;;0.95;0.95;;;22.50;71.10;;;;;;6278082;22;20170;-93
2023/09/05 03:11:39;;;;;;;1.77;1.10;;;22.50;71.10;;;;;;6278112;22;20168;-90
2023/09/05 03:14:14;;;;;;;0.75;0.73;;;22.40;71.10;;;;;;6277137;22;20161;-91
2023/09/05 03:16:43;;;;;;;0.60;0.60;;;22.40;71.30;;;;;;6276685;22;20170;-92
2023/09/05 03:19:12;;;;;;;1.30;1.08;;;22.40;71.40;;;;;;6278294;22;20174;-90
2023/09/05 03:21:40;;;;;;;0.60;0.60;;;22.40;71.60;;;;;;6277789;22;20651;-89
2023/09/05 03:24:18;;;;;;;0.68;0.68;;;22.40;71.70;;;;;;6279296;22;20245;-91
2023/09/05 03:26:50;;;;;;;1.08;0.95;;;22.50;71.60;;;;;;6277348;22;20172;-90
2023/09/05 03:29:19;;;;;;;1.08;0.75;;;22.40;71.70;;;;;;6277203;22;20181;-92
2023/09/05 03:31:48;;;;;;;0.65;0.65;;;22.40;71.80;;;;;;6277777;22;20204;-89
2023/09/05 03:34:18;;;;;;;1.27;0.50;;;22.50;71.70;;;;;;6276616;22;20269;-91
2023/09/05 03:36:47;;;;;;;0.50;0.50;;;22.40;71.90;;;;;;6277633;22;20162;-91
2023/09/05 03:39:21;;;;;;;0.63;0.63;;;22.40;71.90;;;;;;6279664;22;20733;-93
2023/09/05 03:41:52;;;;;;;0.52;0.50;;;22.40;72.10;;;;;;6277360;22;20162;-91
2023/09/05 03:44:21;;;;;;;0.68;0.68;;;22.40;72.20;;;;;;6278766;22;20186;-94
2023/09/05 03:46:55;;;;;;;0.30;0.30;;;22.40;72.30;;;;;;6277656;22;20237;-91
2023/09/05 03:49:23;;;;;;;1.85;0.70;;;22.40;72.30;;;;;;6279101;22;20193;-90
2023/09/05 03:51:56;;;;;;;0.75;0.75;;;22.40;72.40;;;;;;6278839;22;20273;-92
2023/09/05 03:54:26;;;;;;;0.75;0.75;;;22.40;72.50;;;;;;6277704;22;20190;-90
2023/09/05 03:57:02;;;;;;;1.77;1.25;;;22.40;72.60;;;;;;6277930;22;20161;-93
2023/09/05 03:59:31;;;;;;;0.63;0.63;;;22.30;72.50;;;;;;6279874;22;20192;-89
2023/09/05 04:02:00;;;;;;;1.35;0.98;;;22.30;72.50;;;;;;6278059;22;20493;-90
2023/09/05 04:04:29;;;;;;;3.22;0.88;;;22.30;72.70;;;;;;6277826;22;20165;-93
2023/09/05 04:06:58;;;;;;;0.43;0.40;;;22.30;72.80;;;;;;6279110;22;20611;-95
2023/09/05 04:09:30;;;;;;;1.75;0.95;;;22.30;72.70;;;;;;6278802;22;20171;-92
2023/09/05 04:12:00;;;;;;;0.80;0.60;;;22.30;72.70;;;;;;6279307;22;20166;-92
2023/09/05 04:14:37;;;;;;;0.55;0.55;;;22.30;73.00;;;;;;6279372;22;20172;-92
2023/09/05 04:17:07;;;;;;;0.60;0.60;;;22.30;73.00;;;;;;6251573;22;20219;-94
2023/09/05 04:19:35;;;;;;;1.17;1.10;;;22.30;73.00;;;;;;6277756;22;20192;-93
2023/09/05 04:22:04;;;;;;;0.50;0.50;;;22.40;73.10;;;;;;6276000;22;20173;-88
2023/09/05 04:24:38;;;;;;;1.23;0.50;;;22.40;73.00;;;;;;6275134;22;20165;-89
2023/09/05 04:27:10;;;;;;;1.30;0.65;;;22.40;73.20;;;;;;6277368;22;20170;-92
2023/09/05 04:29:45;;;;;;;0.40;0.40;;;22.40;73.20;;;;;;6277961;22;20661;-93
2023/09/05 04:32:28;;;;;;;0.55;0.55;;;22.40;73.00;;;;;;6275256;22;20618;-90
2023/09/05 04:35:01;;;;;;;0.52;0.52;;;22.40;73.00;;;;;;6276706;22;20173;-87
2023/09/05 04:37:38;;;;;;;0.40;0.40;;;22.40;73.20;;;;;;6270613;22;20681;-88
2023/09/05 04:40:13;;;;;;;1.15;0.80;;;22.40;73.20;;;;;;6276324;22;20169;-93
2023/09/05 04:42:43;;;;;;;1.20;0.75;;;22.40;73.10;;;;;;6277436;22;20166;-91
2023/09/05 04:45:12;;;;;;;0.45;0.45;;;22.40;73.20;;;;;;6276617;22;20169;-92
2023/09/05 04:47:44;;;;;;;0.43;0.43;;;22.40;73.20;;;;;;6278579;22;20169;-92
2023/09/05 04:50:42;;;;;;;0.95;0.73;;;22.40;73.10;;;;;;6279279;22;20173;-90
2023/09/05 04:53:11;;;;;;;0.85;0.70;;;22.50;72.70;;;;;;6278578;22;20192;-94
2023/09/05 04:55:47;;;;;;;1.10;0.93;;;22.50;72.90;;;;;;6278877;22;20236;-94
2023/09/05 04:58:25;;;;;;;0.68;0.63;;;22.50;72.90;;;;;;6277509;22;20196;-93
2023/09/05 05:00:56;;;;;;;0.73;0.60;;;22.50;72.70;;;;;;6277098;22;20189;-90
2023/09/05 05:03:27;;;;;;;0.70;0.65;;;22.50;72.50;;;;;;6277848;22;20170;-87
2023/09/05 05:05:56;;;;;;;0.68;0.60;;;22.50;72.60;;;;;;6277357;22;20620;-90
2023/09/05 05:08:25;;;;;;;0.32;0.32;;;22.60;72.70;;;;;;6276855;22;20220;-94
2023/09/05 05:10:54;;;;;;;0.65;0.52;;;22.50;72.40;;;;;;6280089;22;20166;-90
2023/09/05 05:13:25;;;;;;;1.05;0.68;;;22.60;72.30;;;;;;6277812;22;20211;-93
2023/09/05 05:15:53;;;;;;;0.65;0.52;;;22.60;72.30;;;;;;6277285;22;20180;-94
2023/09/05 05:18:22;;;;;;;0.88;0.70;;;22.60;72.20;;;;;;6277002;22;20192;-93
2023/09/05 05:20:50;;;;;;;0.68;0.40;;;22.70;72.30;;;;;;6277222;22;20858;-92
2023/09/05 05:23:19;;;;;;;0.40;0.40;;;22.70;72.20;;;;;;6277508;22;20199;-92
2023/09/05 05:25:48;;;;;;;0.63;0.60;;;22.80;72.00;;;;;;6276974;22;20228;-89
2023/09/05 05:28:18;;;;;;;1.00;0.60;;;22.70;71.80;;;;;;6277841;22;20173;-94
2023/09/05 05:30:55;;;;;;;0.32;0.32;;;22.80;71.70;;;;;;6279693;22;20166;-93
2023/09/05 05:33:24;;;;;;;3.50;1.05;;;22.80;71.50;;;;;;6282871;22;20172;-93
2023/09/05 05:36:10;;;;;;;0.30;0.30;;;22.80;71.60;;;;;;6278739;22;20600;-92
2023/09/05 05:38:44;;;;;;;1.05;0.90;;;22.80;71.60;;;;;;6278601;22;20704;-93
2023/09/05 05:41:19;;;;;;;2.85;0.95;;;22.80;71.10;;;;;;6277990;22;20469;-91
2023/09/05 05:43:52;;;;;;;0.80;0.65;;;22.90;71.30;;;;;;6277192;22;20169;-89
2023/09/05 05:46:23;;;;;;;0.65;0.50;;;22.90;70.80;;;;;;6279078;22;20237;-94
2023/09/05 05:48:52;;;;;;;0.68;0.68;;;22.90;70.70;;;;;;6277546;22;20176;-93
2023/09/05 05:51:21;;;;;;;0.90;0.60;;;22.90;70.70;;;;;;6277015;22;20247;-91
2023/09/05 05:53:50;;;;;;;0.63;0.50;;;23.00;70.60;;;;;;6280139;22;20169;-91
2023/09/05 05:56:21;;;;;;;0.50;0.50;;;23.00;70.20;;;;;;6282425;22;20169;-89
2023/09/05 05:58:51;;;;;;;0.75;0.57;;;23.10;70.10;;;;;;6280669;22;20189;-90
2023/09/05 06:01:20;;;;;;;0.68;0.50;;;23.10;69.70;;;;;;6277129;22;20239;-88
2023/09/05 06:03:50;;;;;;;0.60;0.40;;;23.30;69.70;;;;;;6276703;22;20245;-89
2023/09/05 06:06:18;;;;;;;0.45;0.43;;;23.30;69.30;;;;;;6277584;22;20162;-85
2023/09/05 06:08:47;;;;;;;0.57;0.57;;;23.40;68.30;;;;;;6276719;22;20498;-85
2023/09/05 06:11:15;;;;;;;0.95;0.85;;;23.50;67.80;;;;;;6276123;22;20560;-90
2023/09/05 06:13:44;;;;;;;0.52;0.52;;;23.50;67.60;;;;;;6275740;22;20195;-91
2023/09/05 06:16:15;;;;;;;4.63;1.27;;;23.60;67.40;;;;;;6275398;22;20162;-85
2023/09/05 06:18:44;;;;;;;0.30;0.30;;;23.70;67.20;;;;;;6276473;22;20236;-88
2023/09/05 06:21:14;;;;;;;0.30;0.30;;;23.90;67.20;;;;;;6275374;22;20166;-89
2023/09/05 06:23:42;;;;;;;0.40;0.40;;;23.90;66.80;;;;;;6277797;22;20168;-90
2023/09/05 06:26:11;;;;;;;2.03;0.50;;;24.00;66.60;;;;;;6276965;22;20277;-85
2023/09/05 06:28:39;;;;;;;0.50;0.30;;;24.10;66.10;;;;;;6276499;22;20240;-90
2023/09/05 06:31:08;;;;;;;0.65;0.65;;;24.20;65.10;;;;;;6276157;22;20479;-86
2023/09/05 06:33:38;;;;;;;24.17;1.20;;;24.30;64.70;;;;;;6275435;22;20169;-88
2023/09/05 06:36:07;;;;;;;0.55;0.55;;;24.40;64.20;;;;;;6275164;22;20158;-91
2023/09/05 06:38:37;;;;;;;0.40;0.40;;;24.50;64.20;;;;;;6273971;22;20586;-84
2023/09/05 06:41:09;;;;;;;0.30;0.30;;;24.50;62.50;;;;;;6275665;22;20227;-88
2023/09/05 06:43:37;;;;;;;0.65;0.60;;;24.60;62.50;;;;;;6275560;22;20174;-90
2023/09/05 06:46:08;;;;;;;1.40;1.30;;;24.60;61.50;;;;;;6274715;22;20173;-86
2023/09/05 06:48:39;;;;;;;0.40;0.40;;;24.70;61.70;;;;;;6277147;22;20162;-94
2023/09/05 06:51:08;;;;;;;0.35;0.35;;;24.80;60.90;;;;;;6274469;22;20201;-91
2023/09/05 06:53:39;;;;;;;0.35;0.35;;;24.80;60.60;;;;;;6277352;22;20176;-89
2023/09/05 06:56:07;;;;;;;0.57;0.47;;;24.90;61.00;;;;;;6275517;22;20166;-90
2023/09/05 06:58:36;;;;;;;0.38;0.38;;;25.00;60.50;;;;;;6276797;22;20170;-88
2023/09/05 07:01:08;;;;;;;0.32;0.32;;;25.00;60.10;;;;;;6273316;22;20220;-88
2023/09/05 07:03:36;;;;;;;0.60;0.60;;;25.10;59.80;;;;;;6276385;22;20172;-89
2023/09/05 07:06:05;;;;;;;1.40;0.50;;;25.20;60.00;;;;;;6273963;22;20172;-86
2023/09/05 07:08:35;;;;;;;0.22;0.22;;;25.20;59.20;;;;;;6275799;22;20176;-88
2023/09/05 07:11:05;;;;;;;0.95;0.65;;;25.30;58.90;;;;;;6275109;22;20170;-89
2023/09/05 07:13:34;;;;;;;0.85;0.77;;;25.30;58.50;;;;;;6274737;22;20155;-93
2023/09/05 07:16:04;;;;;;;1.02;0.90;;;25.30;58.70;;;;;;6275318;22;20165;-90
2023/09/05 07:18:32;;;;;;;0.85;0.77;;;25.40;58.90;;;;;;6275548;22;20157;-91
2023/09/05 07:21:01;;;;;;;0.30;0.30;;;25.40;58.40;;;;;;6274082;22;20528;-83
2023/09/05 07:23:29;;;;;;;0.30;0.30;;;25.40;58.60;;;;;;6275917;22;20176;-88
2023/09/05 07:25:58;;;;;;;0.30;0.30;;;25.50;58.80;;;;;;6274480;22;20174;-91
2023/09/05 07:28:31;;;;;;;0.50;0.47;;;25.50;58.10;;;;;;6274769;22;20170;-89
2023/09/05 07:32:02;;;;;;;7.05;0.80;;;25.50;57.80;;;;;;6272643;22;20165;-89
2023/09/05 07:41:11;;;;;;;0.38;0.38;;;25.60;57.80;;;;;;6330415;22;20972;-87
2023/09/05 07:54:20;;;;;;;0.20;0.20;;;25.70;57.90;;;;;;6307896;22;20192;-94
2023/09/05 07:57:17;;;;;;;0.50;0.30;;;25.80;58.00;;;;;;6309156;22;20165;-93
2023/09/05 07:59:51;;;;;;;0.22;0.22;;;25.80;58.00;;;;;;6308423;22;20185;-90
2023/09/05 08:02:28;;;;;;;0.30;0.30;;;25.90;58.00;;;;;;6308422;22;20173;-93
2023/09/05 08:05:05;;;;;;;0.30;0.30;;;26.00;58.10;;;;;;6308886;22;20161;-91
2023/09/05 08:07:40;;;;;;;0.30;0.30;;;26.00;57.40;;;;;;6308700;22;20636;-92
2023/09/05 08:10:15;;;;;;;0.30;0.30;;;26.00;56.50;;;;;;6309195;22;20173;-87
2023/09/05 08:12:54;;;;;;;1.95;1.10;;;26.10;57.40;;;;;;6307854;22;20192;-95
2023/09/05 08:15:24;;;;;;;0.50;0.20;;;26.10;57.00;;;;;;6307629;22;20598;-87
2023/09/05 08:17:59;;;;;;;1.98;1.05;;;26.10;55.70;;;;;;6306858;22;20165;-94
2023/09/05 08:20:35;;;;;;;0.35;0.35;;;26.20;56.00;;;;;;6306702;22;20208;-91
2023/09/05 08:23:33;;;;;;;0.25;0.25;;;26.20;54.90;;;;;;6307289;22;20161;-92
2023/09/05 08:26:04;;;;;;;0.32;0.28;;;26.20;55.20;;;;;;6309123;22;20617;-89
2023/09/05 08:29:14;;;;;;;0.35;0.35;;;26.30;56.00;;;;;;6306794;22;20247;-93
2023/09/05 08:31:58;;;;;;;0.25;0.25;;;26.30;56.00;;;;;;6120932;22;20176;-92
2023/09/05 08:34:28;;;;;;;0.30;0.30;;;26.40;55.50;;;;;;6309330;22;20157;-86
2023/09/05 08:36:59;;;;;;;3.38;0.43;;;26.40;55.70;;;;;;6304003;22;20234;-93
2023/09/05 08:39:29;;;;;;;0.65;0.50;;;26.40;55.00;;;;;;6306044;22;20192;-85
2023/09/05 08:42:17;;;;;;;0.57;0.57;;;26.40;55.30;;;;;;6309802;22;20173;-90
2023/09/05 08:47:33;;;;;;;0.20;0.20;;;26.50;54.60;;;;;;6325741;22;20184;-92
2023/09/05 08:50:04;;;;;;;2.05;1.00;;;26.50;54.30;;;;;;6327144;22;20172;-90
2023/09/05 08:52:40;;;;;;;1.67;0.30;;;26.50;54.40;;;;;;6326987;22;20180;-91
2023/09/05 08:55:10;;;;;;;1.55;0.77;;;26.60;55.00;;;;;;6328009;22;20265;-92
2023/09/05 08:57:42;;;;;;;0.38;0.32;;;26.60;54.70;;;;;;6328563;22;20225;-86
2023/09/05 09:00:13;;;;;;;6.78;0.50;;;26.60;53.40;;;;;;6329861;22;20479;-87
2023/09/05 09:02:41;;;;;;;0.52;0.52;;;26.70;53.70;;;;;;6330231;22;20183;-87
2023/09/05 09:05:10;;;;;;;0.43;0.28;;;26.80;54.00;;;;;;6327591;22;20156;-91
2023/09/05 09:07:46;;;;;;;1.85;1.08;;;26.80;53.40;;;;;;6325085;22;20179;-90
2023/09/05 09:10:20;;;;;;;1.17;0.30;;;26.80;54.10;;;;;;6315173;22;20188;-91
2023/09/05 09:12:54;;;;;;;0.73;0.73;;;26.90;53.60;;;;;;6318424;22;20159;-90
2023/09/05 09:15:26;;;;;;;0.50;0.30;;;27.00;53.70;;;;;;6318332;22;20178;-93
2023/09/05 09:17:55;;;;;;;0.57;0.40;;;27.00;53.60;;;;;;6307331;22;20206;-89
2023/09/05 09:20:28;;;;;;;0.30;0.30;;;27.10;53.30;;;;;;6309544;22;20181;-92
2023/09/05 09:22:56;;;;;;;1.02;0.50;;;27.10;52.70;;;;;;6310001;22;20180;-93
2023/09/05 09:25:26;;;;;;;0.95;0.35;;;27.10;52.80;;;;;;6308548;22;20217;-93
2023/09/05 09:28:01;;;;;;;0.20;0.20;;;27.10;53.20;;;;;;6308666;22;20200;-92
2023/09/05 09:30:32;;;;;;;0.20;0.20;;;27.10;53.50;;;;;;6307774;22;20161;-92
2023/09/05 09:33:01;;;;;;;0.13;0.13;;;27.10;53.00;;;;;;6309037;22;20184;-92
2023/09/05 09:35:34;;;;;;;0.30;0.30;;;27.10;52.90;;;;;;6308779;22;20214;-88
2023/09/05 09:38:02;;;;;;;2.00;0.57;;;27.10;51.80;;;;;;6308782;22;20172;-92
2023/09/05 09:40:37;;;;;;;0.63;0.63;;;27.10;52.30;;;;;;6308576;22;20264;-90
2023/09/05 09:43:09;;;;;;;0.55;0.40;;;27.20;52.70;;;;;;6283085;22;20161;-93
2023/09/05 09:45:38;;;;;;;0.43;0.43;;;27.20;52.00;;;;;;6310077;22;20153;-92
2023/09/05 09:48:12;;;;;;;0.70;0.50;;;27.20;52.40;;;;;;6308880;22;20171;-90
2023/09/05 09:50:41;;;;;;;0.30;0.30;;;27.20;52.00;;;;;;6307628;22;20240;-90
2023/09/05 09:53:13;;;;;;;0.68;0.40;;;27.30;52.00;;;;;;6306326;22;20262;-90
2023/09/05 09:55:44;;;;;;;1.02;0.93;;;27.30;52.30;;;;;;6310530;22;20177;-93
2023/09/05 09:58:18;;;;;;;0.30;0.30;;;27.30;51.10;;;;;;6308582;22;20237;-91
2023/09/05 10:00:52;;;;;;;0.45;0.40;;;27.30;51.30;;;;;;6308613;22;20215;-86
2023/09/05 13:29:50;;;;;;;0.47;0.47;;;28.50;50.40;;;;;;6302913;22;20191;-88
2023/09/05 13:32:18;;;;;;;0.63;0.40;;;28.50;50.50;;;;;;6273220;22;20219;-85
2023/09/05 13:34:47;;;;;;;0.30;0.30;;;28.50;50.70;;;;;;6276057;22;20244;-88
2023/09/05 13:37:16;;;;;;;0.52;0.52;;;28.50;50.80;;;;;;6274066;22;20200;-85
2023/09/05 13:39:44;;;;;;;0.47;0.43;;;28.60;50.70;;;;;;6275402;22;20546;-86
2023/09/05 13:42:15;;;;;;;0.73;0.73;;;28.60;50.50;;;;;;6275270;22;20248;-87
2023/09/05 13:44:44;;;;;;;0.50;0.50;;;28.70;50.30;;;;;;6275237;22;20192;-88
2023/09/05 13:47:14;;;;;;;0.85;0.85;;;28.80;50.30;;;;;;6274024;22;20201;-86
2023/09/05 13:49:45;;;;;;;3.08;1.38;;;28.80;50.20;;;;;;6275380;22;20166;-87
2023/09/05 13:52:13;;;;;;;0.38;0.38;;;28.80;50.20;;;;;;6275048;22;20158;-87
2023/09/05 13:54:42;;;;;;;0.98;0.45;;;28.70;50.20;;;;;;6275390;22;20166;-88
2023/09/05 13:57:12;;;;;;;0.30;0.30;;;28.60;50.60;;;;;;6274818;22;20216;-86
2023/09/05 13:59:41;;;;;;;0.95;0.45;;;28.60;50.80;;;;;;6275834;22;20181;-87
2023/09/05 14:02:10;;;;;;;0.88;0.73;;;28.50;50.70;;;;;;6274808;22;20255;-87
2023/09/05 14:04:40;;;;;;;0.40;0.40;;;28.50;50.80;;;;;;6275484;22;20237;-86
2023/09/05 14:07:08;;;;;;;0.77;0.40;;;28.40;51.10;;;;;;6275442;22;20170;-86
2023/09/05 14:09:37;;;;;;;0.57;0.40;;;28.40;51.30;;;;;;6275610;22;20495;-87
2023/09/05 14:12:07;;;;;;;0.65;0.50;;;28.40;51.60;;;;;;6274297;22;20166;-90
2023/09/05 14:14:38;;;;;;;0.30;0.30;;;28.40;51.50;;;;;;6274719;22;20502;-87
2023/09/05 14:17:11;;;;;;;0.40;0.30;;;28.40;51.70;;;;;;6275833;22;20603;-88
2023/09/05 14:19:42;;;;;;;0.30;0.30;;;28.50;51.80;;;;;;6273719;22;20194;-86
2023/09/05 14:22:10;;;;;;;1.20;0.55;;;28.50;51.80;;;;;;6275791;22;20177;-89
2023/09/05 14:24:38;;;;;;;0.50;0.43;;;28.60;51.10;;;;;;6276223;22;20212;-90
2023/09/05 14:53:25;;;;;;;0.75;0.75;;;28.80;50.10;;;;;;6274984;22;20225;-86
2023/09/05 14:56:23;;;;;;;0.32;0.32;;;28.70;50.60;;;;;;6275103;22;20212;-85
2023/09/05 15:06:19;;;;;;;0.40;0.28;;;28.50;50.70;;;;;;6337175;22;20491;-88
2023/09/05 15:09:01;;;;;;;0.45;0.45;;;28.40;50.30;;;;;;6334805;22;20172;-89
2023/09/05 15:11:39;;;;;;;0.30;0.30;;;28.30;50.50;;;;;;6337819;22;20497;-87
2023/09/05 15:14:07;;;;;;;0.43;0.40;;;28.10;50.80;;;;;;6335863;22;20247;-90
2023/09/05 15:16:40;;;;;;;0.30;0.30;;;28.10;51.10;;;;;;6338266;22;20508;-88
2023/09/05 15:19:09;;;;;;;0.50;0.50;;;28.00;51.40;;;;;;6337053;22;20187;-87
2023/09/05 15:21:40;;;;;;;0.82;0.38;;;27.90;51.50;;;;;;6336813;22;20185;-92
2023/09/05 15:24:10;;;;;;;0.95;0.60;;;27.80;51.50;;;;;;6337531;22;20164;-89
2023/09/05 15:26:42;;;;;;;2.00;1.15;;;27.70;51.70;;;;;;6337279;22;20165;-90
2023/09/05 15:29:11;;;;;;;0.43;0.43;;;27.70;52.00;;;;;;6337243;22;20264;-86
2023/09/05 15:31:39;;;;;;;0.40;0.40;;;27.60;52.30;;;;;;6337571;22;20176;-90
2023/09/05 15:34:08;;;;;;;0.90;0.77;;;27.50;52.30;;;;;;6337137;22;20605;-87
2023/09/05 15:36:37;;;;;;;0.50;0.50;;;27.40;52.40;;;;;;6336960;22;20171;-85
2023/09/05 15:39:09;;;;;;;0.63;0.63;;;27.40;52.60;;;;;;6336752;22;20171;-86
2023/09/05 15:41:38;;;;;;;0.57;0.50;;;27.30;52.50;;;;;;6336525;22;20222;-88
2023/09/05 15:44:09;;;;;;;0.75;0.52;;;27.20;52.70;;;;;;6337246;22;20164;-86
2023/09/05 15:46:39;;;;;;;0.45;0.45;;;27.20;52.90;;;;;;6336559;22;20248;-86
2023/09/05 15:49:08;;;;;;;0.35;0.35;;;27.20;52.90;;;;;;6337561;22;20236;-88
2023/09/05 15:51:36;;;;;;;1.52;0.90;;;27.10;52.80;;;;;;6337513;22;21024;-88
2023/09/05 15:54:05;;;;;;;0.88;0.75;;;27.10;52.90;;;;;;6336784;22;20183;-87
2023/09/05 15:56:36;;;;;;;0.50;0.38;;;27.00;53.10;;;;;;6335836;22;20160;-89
2023/09/05 15:59:12;;;;;;;0.88;0.68;;;27.00;53.30;;;;;;6336172;22;20160;-88
2023/09/05 16:01:58;;;;;;;0.52;0.52;;;27.00;53.60;;;;;;6335185;22;20234;-88
2023/09/05 16:04:44;;;;;;;0.20;0.20;;;26.90;53.40;;;;;;6305003;22;20168;-88
2023/09/05 16:07:13;;;;;;;1.77;0.70;;;26.90;53.40;;;;;;6305894;22;20189;-88
2023/09/05 16:09:43;;;;;;;0.70;0.70;;;26.80;53.60;;;;;;6302063;22;20165;-87
2023/09/05 16:12:19;;;;;;;0.25;0.25;;;26.80;53.90;;;;;;6304843;22;20203;-88
2023/09/05 16:14:49;;;;;;;1.02;0.50;;;26.80;53.80;;;;;;6304195;22;20473;-88
2023/09/05 16:17:21;;;;;;;0.75;0.40;;;26.70;53.80;;;;;;6304701;22;20157;-88
2023/09/05 16:19:52;;;;;;;0.82;0.70;;;26.70;53.80;;;;;;6304846;22;20172;-83
2023/09/05 16:22:21;;;;;;;0.50;0.47;;;26.70;53.90;;;;;;6304859;22;20185;-87
2023/09/05 16:24:54;;;;;;;0.30;0.30;;;26.70;53.80;;;;;;6306407;22;20240;-86
2023/09/05 16:27:22;;;;;;;0.40;0.40;;;26.70;53.90;;;;;;6302239;22;20240;-86
2023/09/05 16:29:54;;;;;;;0.28;0.28;;;26.70;53.90;;;;;;6303865;22;21016;-87
2023/09/05 16:32:22;;;;;;;0.20;0.20;;;26.60;53.90;;;;;;6306452;22;20153;-87
2023/09/05 16:34:55;;;;;;;0.75;0.75;;;26.50;53.90;;;;;;6305790;22;20471;-91
2023/09/05 16:37:23;;;;;;;1.15;1.05;;;26.60;54.00;;;;;;6305339;22;20165;-89
2023/09/05 16:39:52;;;;;;;0.30;0.30;;;26.60;54.10;;;;;;6305315;22;20172;-87
2023/09/05 16:42:20;;;;;;;0.52;0.52;;;26.50;54.10;;;;;;6305936;22;20518;-87
2023/09/05 16:44:49;;;;;;;0.52;0.50;;;26.50;54.20;;;;;;6307002;22;20175;-86
2023/09/05 16:47:19;;;;;;;0.57;0.30;;;26.40;54.30;;;;;;6306980;22;20171;-87
2023/09/05 17:33:03;;;;;;;;;;;;;;;;;;;;;
2023/09/05 17:53:36;;;;;;;0.30;0.30;;;25.70;56.40;;;;;;6236301;22;20185;-89
2023/09/05 18:05:59;;;;;;;0.32;0.32;;;25.60;56.60;;;;;;6250782;22;20949;-92
2023/09/05 18:34:33;;;;;;;0.68;0.40;;;25.40;57.10;;;;;;6307145;22;20197;-91
2023/09/05 18:37:50;;;;;;;0.40;0.40;;;25.40;57.00;;;;;;6213263;23;20254;-91
2023/09/05 18:40:40;;;;;;;1.10;0.40;;;25.30;56.90;;;;;;6214350;23;20483;-88
2023/09/05 18:43:43;;;;;;;8.55;1.13;;;25.20;57.10;;;;;;6212944;23;20198;-93
2023/09/05 18:46:19;;;;;;;2.35;0.50;;;25.20;57.00;;;;;;6212686;23;20171;-90
2023/09/05 18:49:34;;;;;;;1.00;0.90;;;25.20;57.10;;;;;;6210693;23;20182;-93
2023/09/05 18:52:10;;;;;;;0.30;0.30;;;25.20;57.20;;;;;;6195540;23;20182;-92
2023/09/05 18:54:45;;;;;;;0.30;0.30;;;25.20;57.80;;;;;;6265326;22;20232;-92
2023/09/05 18:57:27;;;;;;;0.30;0.30;;;25.20;57.20;;;;;;6306074;22;20181;-91
2023/09/05 19:00:30;;;;;;;0.70;0.47;;;25.20;57.10;;;;;;6307348;22;20172;-91
2023/09/05 19:03:35;;;;;;;0.82;0.82;;;25.10;57.20;;;;;;6307055;22;20511;-90
2023/09/05 19:06:18;;;;;;;0.50;0.40;;;25.10;57.10;;;;;;6308626;22;20716;-90
2023/09/05 19:09:39;;;;;;;0.35;0.35;;;25.00;57.10;;;;;;6307156;22;20157;-90
2023/09/05 19:15:01;;;;;;;1.85;0.40;;;25.00;57.20;;;;;;6305400;22;20248;-89
2023/09/05 19:17:52;;;;;;;0.40;0.30;;;25.00;57.30;;;;;;6308375;22;20161;-90
2023/09/05 19:20:57;;;;;;;;;;;;;;;;;;;;;
2023/09/05 19:23:53;;;;;;;;;;;;;;;;;;;;;